Pagrindinis puslapis
METAR-TAF:

METAR-TAF

Oro uostai :

Sučava, Rumunija

platuma: 47-39N, ilguma: 026-15E, Aukštis: 351 m

Dabartinis oras

Ataskaita buvo paskelbta 20 minutes, ne 07:00 UTC
Vėjas 15 kt iš Šiaurės/Šiaurės Vakarų
Temperatūra 12°C
Drėgmė 62%
Slėgis 1024 hPa
Matomumas 10 km arba daugiau
Išsisklaidę debesys ne aukštis 2700 ft

METAR: LRSV 180700Z 34015KT 9999 SCT027 12/05 Q1024

Laikas: 10:20 (07:20 UTC)

Prognozė

Ataskaita buvo paskelbta 2 valandos ir 20 minutes, ne 05:00 UTC
Prognozė galioja nuo 18 metu 06 UTC su 18 metu 15 UTC
Vėjas 12 kt iš Šiaurės/Šiaurės Vakarų
Matomumas 10 km arba daugiau
nėra debesų žemiau 1500 m ir nėra kamuolinių lietaus debesų

TAF: LRSV 180500Z 1806/1815 33012KT CAVOK

Orai ataskaitas ir orų prognozės (METAR, TAF).

turimą stotys yra geltonos ir raudonos taškus žemėlapyje.

Perkelti pele per norėdami pamatyti stoties vardą.

Tada spustelėkite, norėdami matyti oro stebėjimo ir prognozės.

Norėdami pakeisti žemėlapį: spustelėkite ant žalios mygtukų su juodo kryžiaus žemyn,; žalią mygtuką su brūkšneliu, jei norite nutolinti; arba žalių rodyklių gretimoms žemėlapius.


METAR-TAF: